ロサンゼルス国際空港の過去48時間の天気

ロサンゼルス国際空港 (Los Angeles, Los Angeles International Airport)

現在時刻: 3/27 13:00 PDT (3/27 20:00 UTC) 以下の時間は現地時間です。

過去48時間のMETAR気象情報
時間 風向 風速(m/s) 視程 気温(℃) 湿度(%) 気圧(hPa) 天気現象
27 11:53 北東 5 10km以上 20 23 1021.2
27 10:53 3 10km以上 18.3 25 1021.5
27 09:53 北東 4 10km以上 16.1 31 1021.5
27 08:53 北北東 3 10km以上 13.3 40 1021.1
27 07:53 東北東 2 10km以上 10.6 50 1020.5
27 06:53 不定 2 10km以上 10 44 1020.3
27 05:53 北東 2 10km以上 9.4 48 1019.9
27 04:53 2 10km以上 8.9 51 1019.8
27 03:53 東北東 2 10km以上 8.9 51 1019.6
27 03:46 北東 3 10km以上 9.4 50 1020
27 02:53 静穏 0 10km以上 10.6 44 1019.8
27 01:53 北東 3 10km以上 11.1 46 1019.9
27 00:53 北北東 4 10km以上 11.7 38 1019.8
26 23:53 4 10km以上 12.2 35 1019.7
26 22:53 北北西 5 10km以上 12.8 34 1019.7
26 21:53 北北西 4 10km以上 13.3 34 1019.5
26 20:53 北北西 5 10km以上 14.4 30 1019.2
26 19:53 北北西 5 10km以上 15 28 1018.7
26 18:53 西北西 6 10km以上 14.4 62 1018.7
26 17:53 西 7 10km以上 15 60 1018.6
26 16:53 西 9 10km以上 15.6 57 1018.7
26 15:53 西 9 10km以上 15.6 57 1019
26 14:53 西 11 10km以上 16.1 54 1019.2
26 13:53 西 11 10km以上 16.7 48 1019.5
26 12:53 西 9 10km以上 17.2 38 1019.7
KLAX 271853Z 05009KT 10SM FEW090 FEW160 SCT250 20/M02 A3016 RMK AO2 SLP212 T02001017 $
KLAX 271753Z VRB05KT 10SM FEW090 SCT160 BKN250 18/M02 A3017 RMK AO2 SLP215 T01831022 10183 20083 51010 $
KLAX 271653Z 04008KT 10SM SCT090 BKN160 BKN250 16/M01 A3017 RMK AO2 SLP215 T01611011 /
KLAX 271553Z 02006KT 10SM SCT090 BKN160 BKN250 13/00 A3016 RMK AO2 SLP211 T01330000 $
KLAX 271453Z 07004KT 10SM FEW085 SCT160 BKN250 11/01 A3014 RMK AO2 SLP205 T01060006 53009 $
KLAX 271353Z VRB04KT 10SM FEW080 FEW140 SCT180 10/M02 A3013 RMK AO2 SLP203 T01001017 $
KLAX 271253Z 04003KT 10SM FEW250 09/M01 A3012 RMK AO2 SLP199 T00941011 $
KLAX 271153Z 09003KT 10SM FEW250 09/M01 A3012 RMK AO2 SLP198 T00891006 10133 20083 55002 $
KLAX 271053Z 07003KT 10SM FEW006 SCT250 09/M01 A3011 RMK AO2 SLP196 FU FEW006 T00891006 $
KLAX 271046Z 05005KT 10SM FEW006 SCT250 09/M01 A3011 RMK AO2 FU FEW006 T00941006 $
KLAX 270953Z 00000KT 10SM FEW250 11/M01 A3012 RMK AO2 SLP198 T01061011 $
KLAX 270853Z 04006KT 10SM FEW250 11/00 A3012 RMK AO2 SLP199 T01110000 53002 $
KLAX 270753Z 02008KT 320V050 10SM FEW250 12/M02 A3012 RMK AO2 SLP198 T01171022 401780106 $
KLAX 270653Z 36007KT 10SM CLR 12/M03 A3012 RMK AO2 SLP197 T01221028 $
KLAX 270553Z 34010G17KT 10SM FEW250 13/M03 A3012 RMK AO2 SLP197 T01281028 10156 20128 51009 $
KLAX 270453Z 34008G17KT 10SM FEW250 13/M02 A3011 RMK AO2 SLP195 T01331022 $
KLAX 270353Z 33009G17KT 10SM FEW200 SCT250 14/M03 A3010 RMK AO2 SLP192 T01441028 $
KLAX 270253Z 34009KT 10SM FEW200 SCT250 15/M03 A3009 RMK AO2 SLP187 T01501033 53000 $
KLAX 270153Z 29012KT 10SM FEW200 SCT250 14/07 A3009 RMK AO2 SLP187 T01440072 $
KLAX 270053Z 27014KT 10SM FEW200 SCT250 15/07 A3008 RMK AO2 SLP186 T01500072 $
KLAX 262353Z 26017KT 10SM FEW050 SCT200 BKN250 16/07 A3008 RMK AO2 PK WND 28026/2307 SLP187 T01560072 10178 20156 58008 $
KLAX 262253Z 26018KT 10SM FEW050 SCT200 BKN250 16/07 A3010 RMK AO2 PK WND 26027/2211 SLP190 T01560072 $
KLAX 262153Z 27021KT 10SM FEW060 SCT200 BKN250 16/07 A3010 RMK AO2 PK WND 26026/2141 SLP192 T01610067 $
KLAX 262053Z 26021KT 10SM FEW060 FEW190 SCT230 SCT280 17/06 A3011 RMK AO2 PK WND 27026/2043 SLP195 T01670056 58005 $
KLAX 261953Z 26017KT 10SM FEW060 SCT220 SCT280 17/03 A3011 RMK AO2 SLP197 T01720028 $